createdAt,value
2018-04-07T00:01:47.589Z,4.53
2018-04-07T00:04:13.880Z,4.90
2018-04-07T00:06:40.938Z,4.90
2018-04-07T00:09:07.240Z,5.00
2018-04-07T00:11:34.261Z,4.17
2018-04-07T00:14:01.651Z,4.67
2018-04-07T00:16:28.627Z,4.63
2018-04-07T00:18:54.956Z,4.50
2018-04-07T00:21:21.253Z,4.37
2018-04-07T00:23:48.300Z,3.97
2018-04-07T00:26:15.351Z,4.23
2018-04-07T00:28:42.443Z,4.60
2018-04-07T00:31:08.742Z,4.53
2018-04-07T00:33:35.821Z,4.30
2018-04-07T00:36:02.101Z,4.40
2018-04-07T00:38:28.401Z,5.03
2018-04-07T00:40:55.562Z,4.57
2018-04-07T00:43:22.089Z,4.27
2018-04-07T00:45:48.386Z,3.97
2018-04-07T00:48:14.689Z,4.27
2018-04-07T00:50:41.788Z,4.37
2018-04-07T00:53:08.085Z,4.40
2018-04-07T00:55:34.359Z,4.03
2018-04-07T00:58:00.719Z,4.63
2018-04-07T01:00:27.048Z,4.07
2018-04-07T01:02:53.509Z,4.33
2018-04-07T01:05:19.859Z,5.03
2018-04-07T01:07:46.133Z,4.90
2018-04-07T01:10:12.527Z,4.60
2018-04-07T01:12:38.996Z,4.93
2018-04-07T01:15:05.305Z,3.93
2018-04-07T01:17:31.985Z,4.43
2018-04-07T01:19:59.036Z,4.60
2018-04-07T01:22:26.108Z,4.80
2018-04-07T01:24:52.425Z,4.40
2018-04-07T01:27:18.782Z,4.70
2018-04-07T01:29:45.086Z,4.30
2018-04-07T01:32:12.110Z,4.57
2018-04-07T01:34:38.389Z,4.57
2018-04-07T01:37:04.700Z,3.93
2018-04-07T01:39:31.773Z,4.87
2018-04-07T01:41:58.110Z,4.53
2018-04-07T01:44:24.406Z,4.47
2018-04-07T01:46:51.450Z,4.57
2018-04-07T01:49:18.490Z,4.47
2018-04-07T01:51:45.511Z,4.40
2018-04-07T01:54:11.792Z,4.57
2018-04-07T01:56:38.080Z,4.37
2018-04-07T01:59:04.393Z,5.43
2018-04-07T02:01:30.741Z,4.67
2018-04-07T02:03:57.028Z,4.50
2018-04-07T02:06:23.337Z,4.90
2018-04-07T02:08:50.388Z,4.57
2018-04-07T02:11:17.441Z,5.20
2018-04-07T02:13:43.736Z,4.83
2018-04-07T02:16:10.113Z,4.23
2018-04-07T02:18:36.486Z,5.00
2018-04-07T02:21:02.871Z,5.03
2018-04-07T02:23:29.157Z,4.87
2018-04-07T02:25:55.456Z,4.70
2018-04-07T02:28:21.774Z,4.40
2018-04-07T02:30:48.077Z,5.03
2018-04-07T02:33:14.465Z,5.30
2018-04-07T02:35:40.886Z,4.60
2018-04-07T02:38:07.174Z,4.93
2018-04-07T02:40:34.246Z,4.47
2018-04-07T02:43:00.522Z,4.87
2018-04-07T02:45:26.820Z,4.20
2018-04-07T02:47:54.008Z,4.80
2018-04-07T02:50:20.290Z,4.87
2018-04-07T02:52:46.596Z,4.37
2018-04-07T02:55:13.661Z,4.50
2018-04-07T02:57:39.980Z,5.33
2018-04-07T03:00:06.298Z,4.90
2018-04-07T03:02:33.345Z,4.83
2018-04-07T03:05:00.407Z,4.70
2018-04-07T03:07:27.433Z,5.17
2018-04-07T03:09:54.475Z,4.93
2018-04-07T03:12:20.784Z,5.17
2018-04-07T03:14:47.088Z,4.83
2018-04-07T03:17:13.932Z,4.87
2018-04-07T03:19:40.207Z,4.60
2018-04-07T03:22:06.491Z,5.20
2018-04-07T03:24:32.761Z,5.47
2018-04-07T03:26:59.052Z,4.67
2018-04-07T03:29:25.352Z,4.37
2018-04-07T03:31:53.017Z,4.80
2018-04-07T03:34:20.052Z,5.07
2018-04-07T03:36:47.984Z,4.53
2018-04-07T03:39:14.289Z,5.60
2018-04-07T03:41:40.585Z,5.60
2018-04-07T03:44:07.619Z,4.83
2018-04-07T03:46:33.900Z,5.20
2018-04-07T03:49:01.090Z,5.53
2018-04-07T03:51:27.382Z,4.90
2018-04-07T03:53:53.684Z,5.23
2018-04-07T03:56:20.725Z,5.83
2018-04-07T03:58:47.769Z,4.80
2018-04-07T04:01:14.832Z,4.83
2018-04-07T04:03:41.910Z,4.87
2018-04-07T04:06:08.231Z,5.30
2018-04-07T04:08:34.529Z,5.07
2018-04-07T04:11:01.565Z,4.87
2018-04-07T04:13:27.857Z,4.87
2018-04-07T04:15:54.171Z,5.57
2018-04-07T04:18:20.499Z,5.50
2018-04-07T04:20:46.781Z,5.47
2018-04-07T04:23:13.092Z,5.03
2018-04-07T04:25:39.380Z,4.87
2018-04-07T04:28:06.421Z,3.87
2018-04-07T04:30:33.463Z,4.90
2018-04-07T04:33:00.482Z,5.30
2018-04-07T04:35:26.794Z,5.20
2018-04-07T04:37:53.105Z,4.87
2018-04-07T04:40:19.399Z,6.00
2018-04-07T04:42:46.451Z,4.70
2018-04-07T04:45:13.472Z,5.13
2018-04-07T04:47:39.764Z,5.30
2018-04-07T04:50:06.072Z,4.73
2018-04-07T04:52:32.345Z,5.70
2018-04-07T04:54:58.625Z,5.87
2018-04-07T04:57:26.439Z,6.93
2018-04-07T04:59:52.743Z,6.43
2018-04-07T05:02:19.032Z,6.43
2018-04-07T05:04:46.060Z,8.27
2018-04-07T05:07:12.363Z,10.17
2018-04-07T05:09:38.689Z,12.27
2018-04-07T05:12:04.998Z,13.23
2018-04-07T05:14:31.303Z,19.03
2018-04-07T05:16:58.379Z,999.90
2018-04-07T05:19:24.719Z,999.90
2018-04-07T05:21:51.039Z,999.90
2018-04-07T05:24:17.351Z,999.90
2018-04-07T05:26:44.384Z,999.90
2018-04-07T05:29:10.659Z,999.90
2018-04-07T05:31:36.961Z,999.90
2018-04-07T05:34:04.059Z,999.90
2018-04-07T05:36:30.365Z,25.90
2018-04-07T05:38:56.666Z,999.90
2018-04-07T05:41:23.677Z,999.90
2018-04-07T05:43:49.992Z,999.90
2018-04-07T05:46:16.306Z,999.90
2018-04-07T05:48:42.595Z,999.90
2018-04-07T05:51:08.883Z,999.90
2018-04-07T05:53:35.173Z,999.90
2018-04-07T05:56:02.230Z,20.00
2018-04-07T05:58:28.976Z,14.20
2018-04-07T06:00:55.289Z,10.53
2018-04-07T06:03:22.313Z,10.37
2018-04-07T06:05:48.798Z,10.40
2018-04-07T06:08:15.122Z,10.43
2018-04-07T06:10:41.413Z,10.23
2018-04-07T06:13:07.772Z,9.27
2018-04-07T06:15:34.806Z,8.90
2018-04-07T06:18:01.910Z,9.00
2018-04-07T06:20:28.328Z,7.97
2018-04-07T06:22:54.650Z,8.07
2018-04-07T06:25:20.946Z,8.07
2018-04-07T06:27:48.017Z,7.20
2018-04-07T06:30:14.299Z,7.30
2018-04-07T06:32:40.840Z,7.90
2018-04-07T06:35:07.129Z,7.53
2018-04-07T06:37:33.428Z,7.57
2018-04-07T06:40:00.472Z,6.90
2018-04-07T06:42:27.535Z,7.65
2018-04-07T06:44:54.564Z,6.82
2018-04-07T06:47:21.622Z,7.35
2018-04-07T06:49:49.015Z,7.00
2018-04-07T06:52:15.317Z,6.75
2018-04-07T06:54:41.629Z,6.60
2018-04-07T06:57:08.679Z,6.68
2018-04-07T06:59:35.794Z,7.25
2018-04-07T07:02:02.137Z,7.20
2018-04-07T07:04:28.547Z,9.10
2018-04-07T07:06:54.841Z,7.35
2018-04-07T07:09:21.170Z,6.47
2018-04-07T07:11:48.268Z,6.20
2018-04-07T07:14:14.622Z,6.45
2018-04-07T07:16:41.094Z,6.68
2018-04-07T07:19:07.429Z,5.45
2018-04-07T07:21:33.783Z,5.57
2018-04-07T07:24:00.097Z,5.90
2018-04-07T07:26:26.417Z,6.05
2018-04-07T07:28:52.730Z,5.93
2018-04-07T07:31:19.837Z,5.53
2018-04-07T07:33:46.328Z,5.45
2018-04-07T07:36:12.668Z,5.35
2018-04-07T07:38:39.184Z,5.60
2018-04-07T07:41:06.272Z,5.80
2018-04-07T07:43:32.562Z,5.25
2018-04-07T07:45:59.700Z,4.78
2018-04-07T07:48:26.070Z,5.12
2018-04-07T07:50:52.426Z,5.00
2018-04-07T07:53:18.671Z,5.30
2018-04-07T07:55:44.998Z,5.15
2018-04-07T07:58:11.302Z,5.50
2018-04-07T08:00:37.600Z,5.15
2018-04-07T08:03:04.615Z,5.20
2018-04-07T08:05:30.944Z,6.18
2018-04-07T08:07:57.529Z,5.00
2018-04-07T08:10:24.002Z,5.35
2018-04-07T08:12:50.320Z,4.25
2018-04-07T08:15:16.644Z,5.20
2018-04-07T08:17:42.940Z,5.15
2018-04-07T08:20:10.033Z,5.03
2018-04-07T08:22:36.357Z,5.50
2018-04-07T08:25:02.697Z,4.97
2018-04-07T08:27:29.014Z,4.43
2018-04-07T08:29:55.296Z,4.95
2018-04-07T08:32:21.598Z,5.97
2018-04-07T08:34:47.930Z,5.23
2018-04-07T08:37:14.897Z,4.87
2018-04-07T08:39:40.567Z,5.40
2018-04-07T08:42:06.872Z,5.03
2018-04-07T08:44:33.893Z,4.50
2018-04-07T08:47:00.201Z,4.63
2018-04-07T08:49:26.495Z,4.67
2018-04-07T08:51:52.769Z,4.50
2018-04-07T08:54:19.063Z,4.27
2018-04-07T08:56:45.361Z,4.17
2018-04-07T08:59:12.462Z,4.37
2018-04-07T09:01:38.779Z,12.33
2018-04-07T09:04:05.080Z,8.10
2018-04-07T09:06:32.128Z,4.87
2018-04-07T09:08:59.224Z,4.47
2018-04-07T09:11:25.518Z,4.10
2018-04-07T09:13:51.812Z,4.40
2018-04-07T09:16:18.100Z,3.60
2018-04-07T09:18:44.405Z,4.00
2018-04-07T09:21:11.457Z,5.20
2018-04-07T09:23:37.781Z,6.97
2018-04-07T09:26:04.808Z,5.93
2018-04-07T09:28:31.096Z,5.37
2018-04-07T09:31:03.397Z,4.90
2018-04-07T09:33:29.697Z,3.23
2018-04-07T09:35:56.949Z,3.13
2018-04-07T09:38:23.232Z,2.53
2018-04-07T09:40:50.273Z,2.90
2018-04-07T09:43:16.658Z,2.80
2018-04-07T09:45:42.933Z,2.90
2018-04-07T09:48:09.225Z,2.90
2018-04-07T09:50:35.537Z,2.97
2018-04-07T09:53:01.874Z,2.60
2018-04-07T09:55:28.173Z,2.90
2018-04-07T09:57:55.212Z,2.87
2018-04-07T10:00:22.499Z,3.03
2018-04-07T10:02:48.828Z,3.30
2018-04-07T10:05:15.400Z,3.43
2018-04-07T10:07:41.715Z,3.20
2018-04-07T10:10:08.023Z,3.10
2018-04-07T10:12:34.357Z,2.70
2018-04-07T10:15:00.645Z,3.20
2018-04-07T10:17:26.973Z,2.90
2018-04-07T10:19:53.268Z,3.60
2018-04-07T10:22:19.563Z,3.70
2018-04-07T10:24:46.604Z,4.07
2018-04-07T10:27:13.650Z,3.37
2018-04-07T10:29:40.703Z,5.77
2018-04-07T10:32:07.746Z,5.33
2018-04-07T10:34:34.790Z,5.97
2018-04-07T10:37:01.814Z,6.00
2018-04-07T10:39:28.105Z,4.73
2018-04-07T10:41:54.411Z,6.80
2018-04-07T10:44:21.483Z,4.57
2018-04-07T10:46:47.787Z,5.23
2018-04-07T10:49:14.817Z,5.80
2018-04-07T10:51:41.100Z,4.47
2018-04-07T10:54:07.415Z,5.13
2018-04-07T10:56:33.748Z,6.27
2018-04-07T10:59:00.051Z,5.10
2018-04-07T11:01:27.080Z,6.33
2018-04-07T11:03:53.390Z,6.23
2018-04-07T11:06:19.693Z,6.90
2018-04-07T11:08:45.997Z,5.77
2018-04-07T11:11:12.296Z,5.53
2018-04-07T11:13:40.014Z,6.90
2018-04-07T11:16:06.319Z,6.27
2018-04-07T11:18:33.521Z,5.93
2018-04-07T11:20:59.826Z,5.17
2018-04-07T11:23:26.159Z,5.53
2018-04-07T11:25:52.453Z,4.90
2018-04-07T11:28:19.533Z,5.70
2018-04-07T11:30:45.930Z,4.87
2018-04-07T11:33:12.964Z,5.07
2018-04-07T11:35:39.315Z,4.93
2018-04-07T11:38:06.374Z,5.47
2018-04-07T11:40:32.666Z,3.60
2018-04-07T11:42:58.977Z,5.60
2018-04-07T11:45:25.284Z,5.12
2018-04-07T11:47:51.645Z,4.90
2018-04-07T11:50:17.972Z,4.30
2018-04-07T11:52:44.283Z,4.70
2018-04-07T11:55:10.598Z,3.97
2018-04-07T11:57:36.893Z,4.23
2018-04-07T12:00:03.220Z,4.47
2018-04-07T12:02:29.570Z,3.40
2018-04-07T12:04:55.845Z,3.63
2018-04-07T12:07:22.177Z,3.60
2018-04-07T12:09:48.491Z,3.33
2018-04-07T12:12:14.805Z,3.10
2018-04-07T12:14:41.882Z,3.73
2018-04-07T12:17:08.264Z,3.83
2018-04-07T12:19:34.574Z,4.70
2018-04-07T12:22:00.871Z,4.60
2018-04-07T12:24:27.171Z,3.60
2018-04-07T12:26:54.222Z,3.53
2018-04-07T12:29:21.243Z,3.93
2018-04-07T12:31:47.529Z,4.00
2018-04-07T12:34:13.848Z,3.80
2018-04-07T12:36:40.155Z,3.53
2018-04-07T12:39:07.278Z,3.73
2018-04-07T12:41:33.575Z,3.37
2018-04-07T12:43:59.865Z,3.67
2018-04-07T12:46:27.010Z,3.30
2018-04-07T12:48:54.094Z,2.90
2018-04-07T12:51:20.380Z,4.40
2018-04-07T12:53:46.775Z,4.10
2018-04-07T12:56:13.067Z,3.00
2018-04-07T12:58:40.129Z,2.47
2018-04-07T13:01:06.743Z,4.43
2018-04-07T13:03:34.151Z,5.60
2018-04-07T13:06:00.462Z,3.87
2018-04-07T13:08:26.765Z,4.43
2018-04-07T13:10:53.854Z,3.53
2018-04-07T13:13:20.152Z,4.43
2018-04-07T13:15:47.189Z,4.40
2018-04-07T13:18:14.238Z,4.00
2018-04-07T13:20:41.322Z,3.93
2018-04-07T13:23:07.652Z,4.03
2018-04-07T13:25:33.951Z,3.10
2018-04-07T13:28:01.042Z,2.50
2018-04-07T13:30:27.374Z,2.67
2018-04-07T13:32:53.733Z,2.80
2018-04-07T13:35:20.032Z,2.83
2018-04-07T13:37:46.317Z,2.83
2018-04-07T13:40:13.373Z,3.13
2018-04-07T13:42:40.417Z,2.83
2018-04-07T13:45:07.454Z,2.87
2018-04-07T13:47:33.763Z,3.10
2018-04-07T13:50:00.061Z,2.90
2018-04-07T13:52:26.379Z,3.20
2018-04-07T13:54:52.700Z,2.60
2018-04-07T13:57:19.020Z,2.97
2018-04-07T13:59:46.201Z,2.50
2018-04-07T14:02:12.521Z,3.10
2018-04-07T14:04:38.823Z,3.40
2018-04-07T14:07:05.875Z,3.47
2018-04-07T14:09:32.923Z,3.37
2018-04-07T14:12:00.002Z,3.33
2018-04-07T14:14:26.310Z,2.83
2018-04-07T14:16:53.519Z,2.77
2018-04-07T14:19:19.862Z,2.40
2018-04-07T14:21:46.284Z,2.43
2018-04-07T14:24:12.593Z,2.10
2018-04-07T14:26:38.998Z,2.10
2018-04-07T14:29:05.329Z,2.33
2018-04-07T14:31:31.644Z,2.50
2018-04-07T14:33:58.703Z,2.60
2018-04-07T14:36:25.753Z,2.93
2018-04-07T14:38:52.809Z,3.43
2018-04-07T14:41:19.208Z,2.63
2018-04-07T14:43:45.499Z,2.60
2018-04-07T14:46:11.777Z,3.03
2018-04-07T14:48:38.818Z,2.17
2018-04-07T14:51:05.142Z,2.90
2018-04-07T14:53:31.440Z,1.97
2018-04-07T14:55:57.856Z,2.13
2018-04-07T14:58:24.169Z,2.53
2018-04-07T15:00:51.221Z,2.83
2018-04-07T15:03:17.582Z,3.00
2018-04-07T15:05:43.886Z,2.80
2018-04-07T15:08:10.166Z,3.97
2018-04-07T15:10:36.444Z,4.20
2018-04-07T15:13:02.760Z,4.63
2018-04-07T15:15:29.794Z,4.80
2018-04-07T15:17:57.654Z,4.63
2018-04-07T15:20:23.945Z,3.73
2018-04-07T15:22:50.221Z,3.87
2018-04-07T15:25:16.530Z,4.10
2018-04-07T15:27:42.837Z,3.53
2018-04-07T15:30:09.126Z,3.90
2018-04-07T15:32:36.180Z,3.73
2018-04-07T15:35:03.221Z,4.47
2018-04-07T15:37:30.272Z,3.87
2018-04-07T15:39:57.325Z,3.97
2018-04-07T15:42:24.377Z,3.70
2018-04-07T15:44:51.417Z,4.53
2018-04-07T15:47:18.448Z,4.93
2018-04-07T15:49:44.865Z,4.23
2018-04-07T15:52:11.171Z,3.83
2018-04-07T15:54:37.493Z,3.67
2018-04-07T15:57:03.791Z,3.60
2018-04-07T15:59:30.832Z,4.50
2018-04-07T16:01:57.906Z,4.57
2018-04-07T16:04:24.228Z,4.97
2018-04-07T16:06:50.544Z,3.70
2018-04-07T16:09:17.638Z,3.87
2018-04-07T16:11:43.956Z,4.03
2018-04-07T16:14:10.288Z,4.27
2018-04-07T16:16:36.619Z,3.83
2018-04-07T16:19:02.959Z,3.80
2018-04-07T16:21:29.289Z,3.20
2018-04-07T16:23:55.592Z,4.23
2018-04-07T16:26:22.628Z,3.10
2018-04-07T16:28:49.653Z,4.03
2018-04-07T16:31:15.974Z,3.03
2018-04-07T16:33:42.288Z,3.03
2018-04-07T16:36:08.606Z,3.07
2018-04-07T16:38:34.906Z,3.20
2018-04-07T16:41:01.994Z,3.23
2018-04-07T16:43:28.265Z,2.47
2018-04-07T16:45:54.617Z,4.80
2018-04-07T16:48:20.905Z,3.27
2018-04-07T16:50:47.225Z,2.87
2018-04-07T16:53:13.540Z,2.83
2018-04-07T16:55:39.868Z,2.23
2018-04-07T16:58:06.166Z,2.27
2018-04-07T17:00:33.329Z,1.90
2018-04-07T17:02:59.557Z,2.27
2018-04-07T17:05:25.849Z,2.30
2018-04-07T17:07:52.133Z,2.47
2018-04-07T17:10:18.436Z,1.87
2018-04-07T17:12:45.483Z,2.53
2018-04-07T17:15:12.532Z,2.20
2018-04-07T17:17:39.617Z,2.93
2018-04-07T17:20:05.924Z,2.40
2018-04-07T17:22:32.222Z,2.57
2018-04-07T17:24:58.501Z,2.40
2018-04-07T17:27:24.827Z,3.00
2018-04-07T17:29:52.071Z,3.20
2018-04-07T17:32:18.412Z,2.80
2018-04-07T17:34:44.710Z,2.70
2018-04-07T17:37:11.745Z,2.53
2018-04-07T17:39:38.233Z,2.47
2018-04-07T17:42:04.587Z,2.87
2018-04-07T17:44:31.020Z,2.50
2018-04-07T17:46:57.311Z,2.83
2018-04-07T17:49:23.589Z,2.93
2018-04-07T17:51:49.920Z,2.90
2018-04-07T17:54:16.221Z,3.53
2018-04-07T17:56:42.548Z,3.47
2018-04-07T17:59:08.854Z,3.13
2018-04-07T18:01:35.891Z,2.80
2018-04-07T18:04:02.924Z,2.90
2018-04-07T18:06:29.230Z,2.70
2018-04-07T18:08:55.549Z,2.83
2018-04-07T18:11:27.821Z,3.57
2018-04-07T18:13:54.093Z,3.80
2018-04-07T18:16:21.129Z,3.80
2018-04-07T18:18:47.427Z,2.83
2018-04-07T18:21:13.728Z,2.97
2018-04-07T18:23:40.016Z,3.63
2018-04-07T18:26:06.288Z,3.27
2018-04-07T18:28:32.626Z,3.20
2018-04-07T18:30:58.932Z,3.00
2018-04-07T18:33:25.980Z,3.27
2018-04-07T18:35:53.010Z,3.40
2018-04-07T18:38:19.388Z,3.30
2018-04-07T18:40:45.725Z,3.10
2018-04-07T18:43:12.035Z,3.30
2018-04-07T18:45:38.388Z,3.40
2018-04-07T18:48:04.746Z,3.30
2018-04-07T18:50:31.038Z,4.03
2018-04-07T18:52:57.395Z,4.30
2018-04-07T18:55:23.690Z,4.33
2018-04-07T18:57:49.990Z,6.47
2018-04-07T19:00:16.295Z,44.97
2018-04-07T19:02:42.584Z,52.50
2018-04-07T19:05:09.635Z,44.57
2018-04-07T19:07:35.973Z,35.83
2018-04-07T19:10:02.324Z,19.27
2018-04-07T19:12:28.600Z,9.67
2018-04-07T19:14:54.907Z,5.97
2018-04-07T19:17:21.208Z,5.03
2018-04-07T19:19:47.504Z,4.13
2018-04-07T19:22:14.524Z,3.97
2018-04-07T19:24:40.825Z,3.60
2018-04-07T19:27:07.128Z,3.73
2018-04-07T19:29:33.408Z,3.43
2018-04-07T19:32:00.113Z,3.60
2018-04-07T19:34:26.444Z,3.50
2018-04-07T19:36:53.528Z,3.83
2018-04-07T19:39:19.906Z,3.10
2018-04-07T19:41:46.959Z,4.00
2018-04-07T19:44:13.250Z,4.40
2018-04-07T19:46:40.519Z,4.43
2018-04-07T19:49:07.565Z,4.57
2018-04-07T19:51:33.919Z,4.60
2018-04-07T19:54:00.208Z,4.20
2018-04-07T19:56:26.503Z,4.97
2018-04-07T19:58:52.809Z,4.33
2018-04-07T20:01:19.148Z,4.00
2018-04-07T20:03:46.142Z,4.93
2018-04-07T20:06:12.425Z,3.93
2018-04-07T20:08:38.708Z,4.60
2018-04-07T20:11:05.029Z,4.47
2018-04-07T20:13:31.331Z,5.07
2018-04-07T20:15:57.632Z,4.37
2018-04-07T20:18:24.678Z,4.37
2018-04-07T20:20:51.715Z,6.00
2018-04-07T20:23:18.777Z,4.87
2018-04-07T20:25:45.833Z,5.17
2018-04-07T20:28:12.129Z,4.97
2018-04-07T20:30:38.405Z,4.73
2018-04-07T20:33:04.720Z,4.93
2018-04-07T20:35:31.795Z,4.80
2018-04-07T20:37:58.078Z,5.10
2018-04-07T20:40:24.377Z,4.50
2018-04-07T20:42:50.690Z,4.53
2018-04-07T20:45:17.000Z,5.23
2018-04-07T20:47:43.311Z,5.40
2018-04-07T20:50:10.333Z,5.17
2018-04-07T20:52:37.567Z,4.93
2018-04-07T20:55:03.888Z,4.97
2018-04-07T20:57:30.208Z,5.47
2018-04-07T20:59:56.493Z,4.93
2018-04-07T21:02:23.533Z,5.43
2018-04-07T21:04:49.836Z,5.50
2018-04-07T21:07:16.138Z,5.37
2018-04-07T21:09:42.415Z,6.20
2018-04-07T21:12:08.797Z,5.70
2018-04-07T21:14:35.085Z,5.10
2018-04-07T21:17:01.381Z,5.67
2018-04-07T21:19:27.663Z,5.03
2018-04-07T21:21:54.673Z,5.87
2018-04-07T21:24:21.006Z,5.77
2018-04-07T21:26:47.324Z,5.10
2018-04-07T21:29:13.636Z,5.83
2018-04-07T21:31:39.929Z,6.20
2018-04-07T21:34:06.987Z,6.47
2018-04-07T21:36:34.026Z,6.03
2018-04-07T21:39:01.090Z,5.40
2018-04-07T21:41:28.125Z,5.90
2018-04-07T21:43:55.171Z,6.00
2018-04-07T21:46:22.232Z,5.83
2018-04-07T21:48:48.614Z,6.10
2018-04-07T21:51:14.916Z,6.37
2018-04-07T21:53:41.223Z,5.23
2018-04-07T21:56:08.274Z,5.53
2018-04-07T21:58:35.324Z,6.63
2018-04-07T22:01:02.381Z,5.63
2018-04-07T22:03:28.652Z,5.83
2018-04-07T22:05:54.976Z,5.67
2018-04-07T22:08:21.305Z,5.37
2018-04-07T22:10:47.660Z,5.63
2018-04-07T22:13:13.988Z,6.47
2018-04-07T22:15:40.348Z,5.13
2018-04-07T22:18:07.422Z,5.23
2018-04-07T22:20:33.740Z,5.67
2018-04-07T22:23:00.052Z,5.53
2018-04-07T22:25:27.135Z,5.33
2018-04-07T22:27:54.385Z,5.53
2018-04-07T22:30:20.811Z,5.83
2018-04-07T22:32:47.164Z,5.00
2018-04-07T22:35:13.598Z,5.80
2018-04-07T22:37:39.929Z,4.87
2018-04-07T22:40:06.318Z,6.17
2018-04-07T22:42:33.413Z,5.80
2018-04-07T22:44:59.721Z,5.90
2018-04-07T22:47:26.189Z,5.73
2018-04-07T22:49:52.490Z,4.73
2018-04-07T22:52:18.960Z,4.97
2018-04-07T22:54:45.257Z,5.53
2018-04-07T22:57:11.600Z,5.97
2018-04-07T22:59:38.498Z,5.33
2018-04-07T23:02:04.855Z,5.13
2018-04-07T23:04:31.134Z,5.13
2018-04-07T23:06:57.445Z,5.37
2018-04-07T23:09:23.785Z,5.53
2018-04-07T23:11:50.093Z,5.73
2018-04-07T23:14:16.663Z,5.70
2018-04-07T23:16:43.087Z,5.40
2018-04-07T23:19:09.497Z,5.07
2018-04-07T23:21:35.993Z,5.93
2018-04-07T23:24:03.245Z,5.10
2018-04-07T23:26:30.330Z,5.37
2018-04-07T23:28:57.031Z,5.13
2018-04-07T23:31:24.169Z,5.00
2018-04-07T23:33:50.460Z,5.47
2018-04-07T23:36:16.941Z,4.83
2018-04-07T23:38:43.252Z,5.23
2018-04-07T23:41:09.902Z,4.83
2018-04-07T23:43:36.252Z,4.87
2018-04-07T23:46:03.684Z,4.53
2018-04-07T23:48:30.162Z,4.90
2018-04-07T23:50:56.451Z,4.83
2018-04-07T23:53:22.743Z,4.73
2018-04-07T23:55:49.085Z,5.07
2018-04-07T23:58:15.623Z,4.30
